sensor_id;sensor_type;location;lat;lon;timestamp;pressure;altitude;pressure_sealevel;temperature
20736;BMP180;10528;52.124;5.196;2022-08-26T00:01:55;101537.00;;;28.80
20736;BMP180;10528;52.124;5.196;2022-08-26T00:04:24;101543.00;;;28.80
20736;BMP180;10528;52.124;5.196;2022-08-26T00:06:53;101551.00;;;28.80
20736;BMP180;10528;52.124;5.196;2022-08-26T00:09:22;101553.00;;;28.80
20736;BMP180;10528;52.124;5.196;2022-08-26T00:11:52;101550.00;;;28.70
20736;BMP180;10528;52.124;5.196;2022-08-26T00:14:21;101556.00;;;28.70
20736;BMP180;10528;52.124;5.196;2022-08-26T00:16:55;101556.00;;;28.70
20736;BMP180;10528;52.124;5.196;2022-08-26T00:19:22;101543.00;;;28.70
20736;BMP180;10528;52.124;5.196;2022-08-26T00:21:49;101534.00;;;28.70
20736;BMP180;10528;52.124;5.196;2022-08-26T00:24:19;101548.00;;;28.70
20736;BMP180;10528;52.124;5.196;2022-08-26T00:26:48;101544.00;;;28.60
20736;BMP180;10528;52.124;5.196;2022-08-26T00:29:18;101549.00;;;28.60
20736;BMP180;10528;52.124;5.196;2022-08-26T00:31:47;101551.00;;;28.60
20736;BMP180;10528;52.124;5.196;2022-08-26T00:34:13;101552.00;;;28.60
20736;BMP180;10528;52.124;5.196;2022-08-26T00:36:45;101560.00;;;28.60
20736;BMP180;10528;52.124;5.196;2022-08-26T00:39:12;101555.00;;;28.60
20736;BMP180;10528;52.124;5.196;2022-08-26T00:41:40;101556.00;;;28.50
20736;BMP180;10528;52.124;5.196;2022-08-26T00:44:08;101551.00;;;28.50
20736;BMP180;10528;52.124;5.196;2022-08-26T00:46:44;101551.00;;;28.50
20736;BMP180;10528;52.124;5.196;2022-08-26T00:49:36;101549.00;;;28.50
20736;BMP180;10528;52.124;5.196;2022-08-26T00:52:09;101548.00;;;28.50
20736;BMP180;10528;52.124;5.196;2022-08-26T00:54:54;101552.00;;;28.50
20736;BMP180;10528;52.124;5.196;2022-08-26T00:57:25;101540.00;;;28.50
20736;BMP180;10528;52.124;5.196;2022-08-26T00:59:59;101548.00;;;28.50
20736;BMP180;10528;52.124;5.196;2022-08-26T01:02:27;101541.00;;;28.50
20736;BMP180;10528;52.124;5.196;2022-08-26T01:04:59;101537.00;;;28.50
20736;BMP180;10528;52.124;5.196;2022-08-26T01:07:32;101537.00;;;28.50
20736;BMP180;10528;52.124;5.196;2022-08-26T01:10:06;101539.00;;;28.40
20736;BMP180;10528;52.124;5.196;2022-08-26T01:12:42;101539.00;;;28.40
20736;BMP180;10528;52.124;5.196;2022-08-26T01:15:34;101547.00;;;28.40
20736;BMP180;10528;52.124;5.196;2022-08-26T01:18:05;101543.00;;;28.40
20736;BMP180;10528;52.124;5.196;2022-08-26T01:23:40;101537.00;;;28.30
20736;BMP180;10528;52.124;5.196;2022-08-26T01:26:19;101538.00;;;28.30
20736;BMP180;10528;52.124;5.196;2022-08-26T01:28:50;101532.00;;;28.30
20736;BMP180;10528;52.124;5.196;2022-08-26T01:31:27;101535.00;;;28.30
20736;BMP180;10528;52.124;5.196;2022-08-26T01:34:23;101542.00;;;28.20
20736;BMP180;10528;52.124;5.196;2022-08-26T01:37:09;101539.00;;;28.20
20736;BMP180;10528;52.124;5.196;2022-08-26T01:39:43;101537.00;;;28.20
20736;BMP180;10528;52.124;5.196;2022-08-26T01:42:14;101535.00;;;28.20
20736;BMP180;10528;52.124;5.196;2022-08-26T01:44:55;101546.00;;;28.20
20736;BMP180;10528;52.124;5.196;2022-08-26T01:47:26;101544.00;;;28.20
20736;BMP180;10528;52.124;5.196;2022-08-26T01:49:58;101552.00;;;28.30
20736;BMP180;10528;52.124;5.196;2022-08-26T01:52:30;101536.00;;;28.30
20736;BMP180;10528;52.124;5.196;2022-08-26T01:54:59;101544.00;;;28.30
20736;BMP180;10528;52.124;5.196;2022-08-26T01:57:27;101538.00;;;28.30
20736;BMP180;10528;52.124;5.196;2022-08-26T01:59:58;101537.00;;;28.30
20736;BMP180;10528;52.124;5.196;2022-08-26T02:02:27;101536.00;;;28.30
20736;BMP180;10528;52.124;5.196;2022-08-26T02:05:00;101535.00;;;28.30
20736;BMP180;10528;52.124;5.196;2022-08-26T02:07:30;101545.00;;;28.30
20736;BMP180;10528;52.124;5.196;2022-08-26T02:09:59;101544.00;;;28.20
20736;BMP180;10528;52.124;5.196;2022-08-26T02:12:26;101546.00;;;28.20
20736;BMP180;10528;52.124;5.196;2022-08-26T02:14:59;101552.00;;;28.20
20736;BMP180;10528;52.124;5.196;2022-08-26T02:17:42;101546.00;;;28.20
20736;BMP180;10528;52.124;5.196;2022-08-26T02:20:15;101548.00;;;28.20
20736;BMP180;10528;52.124;5.196;2022-08-26T02:22:42;101533.00;;;28.20
20736;BMP180;10528;52.124;5.196;2022-08-26T02:25:21;101536.00;;;28.20
20736;BMP180;10528;52.124;5.196;2022-08-26T02:27:50;101542.00;;;28.20
20736;BMP180;10528;52.124;5.196;2022-08-26T02:30:23;101542.00;;;28.20
20736;BMP180;10528;52.124;5.196;2022-08-26T02:32:51;101545.00;;;28.20
20736;BMP180;10528;52.124;5.196;2022-08-26T02:35:22;101547.00;;;28.20
20736;BMP180;10528;52.124;5.196;2022-08-26T02:37:51;101553.00;;;28.20
20736;BMP180;10528;52.124;5.196;2022-08-26T02:40:27;101537.00;;;28.20
20736;BMP180;10528;52.124;5.196;2022-08-26T02:42:54;101541.00;;;28.20
20736;BMP180;10528;52.124;5.196;2022-08-26T02:45:23;101549.00;;;28.20
20736;BMP180;10528;52.124;5.196;2022-08-26T02:47:51;101536.00;;;28.20
20736;BMP180;10528;52.124;5.196;2022-08-26T02:50:19;101531.00;;;28.10
20736;BMP180;10528;52.124;5.196;2022-08-26T02:52:46;101540.00;;;28.10
20736;BMP180;10528;52.124;5.196;2022-08-26T02:55:14;101551.00;;;28.10
20736;BMP180;10528;52.124;5.196;2022-08-26T02:57:42;101544.00;;;28.10
20736;BMP180;10528;52.124;5.196;2022-08-26T03:00:11;101539.00;;;28.10
20736;BMP180;10528;52.124;5.196;2022-08-26T03:02:40;101536.00;;;28.00
20736;BMP180;10528;52.124;5.196;2022-08-26T03:05:08;101538.00;;;28.00
20736;BMP180;10528;52.124;5.196;2022-08-26T03:07:35;101540.00;;;28.00
20736;BMP180;10528;52.124;5.196;2022-08-26T03:10:04;101544.00;;;28.00
20736;BMP180;10528;52.124;5.196;2022-08-26T03:12:35;101548.00;;;28.00
20736;BMP180;10528;52.124;5.196;2022-08-26T03:15:04;101546.00;;;28.00
20736;BMP180;10528;52.124;5.196;2022-08-26T03:17:47;101547.00;;;28.00
20736;BMP180;10528;52.124;5.196;2022-08-26T03:20:17;101541.00;;;28.00
20736;BMP180;10528;52.124;5.196;2022-08-26T03:22:44;101546.00;;;28.00
20736;BMP180;10528;52.124;5.196;2022-08-26T03:25:14;101541.00;;;28.00
20736;BMP180;10528;52.124;5.196;2022-08-26T03:27:42;101535.00;;;27.90
20736;BMP180;10528;52.124;5.196;2022-08-26T03:30:11;101530.00;;;27.90
20736;BMP180;10528;52.124;5.196;2022-08-26T03:32:59;101540.00;;;27.90
20736;BMP180;10528;52.124;5.196;2022-08-26T03:35:26;101537.00;;;27.90
20736;BMP180;10528;52.124;5.196;2022-08-26T03:37:53;101550.00;;;27.80
20736;BMP180;10528;52.124;5.196;2022-08-26T03:40:20;101546.00;;;27.80
20736;BMP180;10528;52.124;5.196;2022-08-26T03:42:49;101546.00;;;27.80
20736;BMP180;10528;52.124;5.196;2022-08-26T03:45:17;101546.00;;;27.80
20736;BMP180;10528;52.124;5.196;2022-08-26T03:47:46;101535.00;;;27.80
20736;BMP180;10528;52.124;5.196;2022-08-26T03:50:18;101554.00;;;27.80
20736;BMP180;10528;52.124;5.196;2022-08-26T03:52:51;101541.00;;;27.80
20736;BMP180;10528;52.124;5.196;2022-08-26T03:55:27;101537.00;;;27.80
20736;BMP180;10528;52.124;5.196;2022-08-26T03:57:59;101534.00;;;27.80
20736;BMP180;10528;52.124;5.196;2022-08-26T04:00:27;101537.00;;;27.70
20736;BMP180;10528;52.124;5.196;2022-08-26T04:02:54;101535.00;;;27.70
20736;BMP180;10528;52.124;5.196;2022-08-26T04:05:22;101543.00;;;27.80
20736;BMP180;10528;52.124;5.196;2022-08-26T04:07:50;101538.00;;;27.80
20736;BMP180;10528;52.124;5.196;2022-08-26T04:10:19;101537.00;;;27.80
20736;BMP180;10528;52.124;5.196;2022-08-26T04:12:56;101526.00;;;27.80
20736;BMP180;10528;52.124;5.196;2022-08-26T04:15:25;101524.00;;;27.70
20736;BMP180;10528;52.124;5.196;2022-08-26T04:17:52;101527.00;;;27.70
20736;BMP180;10528;52.124;5.196;2022-08-26T04:20:21;101516.00;;;27.70
20736;BMP180;10528;52.124;5.196;2022-08-26T04:22:49;101520.00;;;27.70
20736;BMP180;10528;52.124;5.196;2022-08-26T04:25:16;101518.00;;;27.70
20736;BMP180;10528;52.124;5.196;2022-08-26T04:27:46;101530.00;;;27.70
20736;BMP180;10528;52.124;5.196;2022-08-26T04:30:14;101538.00;;;27.70
20736;BMP180;10528;52.124;5.196;2022-08-26T04:32:42;101530.00;;;27.70
20736;BMP180;10528;52.124;5.196;2022-08-26T04:35:09;101534.00;;;27.70
20736;BMP180;10528;52.124;5.196;2022-08-26T04:37:37;101531.00;;;27.70
20736;BMP180;10528;52.124;5.196;2022-08-26T04:40:05;101535.00;;;27.70
20736;BMP180;10528;52.124;5.196;2022-08-26T04:42:32;101528.00;;;27.70
20736;BMP180;10528;52.124;5.196;2022-08-26T04:45:00;101534.00;;;27.70
20736;BMP180;10528;52.124;5.196;2022-08-26T04:47:31;101538.00;;;27.70
20736;BMP180;10528;52.124;5.196;2022-08-26T04:49:58;101545.00;;;27.70
20736;BMP180;10528;52.124;5.196;2022-08-26T04:52:27;101549.00;;;27.70
20736;BMP180;10528;52.124;5.196;2022-08-26T04:54:54;101550.00;;;27.70
20736;BMP180;10528;52.124;5.196;2022-08-26T04:57:21;101554.00;;;27.70
20736;BMP180;10528;52.124;5.196;2022-08-26T04:59:48;101553.00;;;27.70
20736;BMP180;10528;52.124;5.196;2022-08-26T05:02:15;101550.00;;;27.70
20736;BMP180;10528;52.124;5.196;2022-08-26T05:04:42;101555.00;;;27.70
20736;BMP180;10528;52.124;5.196;2022-08-26T05:07:10;101556.00;;;27.70
20736;BMP180;10528;52.124;5.196;2022-08-26T05:09:39;101548.00;;;27.70
20736;BMP180;10528;52.124;5.196;2022-08-26T05:12:06;101559.00;;;27.70
20736;BMP180;10528;52.124;5.196;2022-08-26T05:14:34;101557.00;;;27.70
20736;BMP180;10528;52.124;5.196;2022-08-26T05:17:02;101563.00;;;27.70
20736;BMP180;10528;52.124;5.196;2022-08-26T05:19:30;101558.00;;;27.70
20736;BMP180;10528;52.124;5.196;2022-08-26T05:21:58;101564.00;;;27.70
20736;BMP180;10528;52.124;5.196;2022-08-26T05:24:25;101552.00;;;27.70
20736;BMP180;10528;52.124;5.196;2022-08-26T05:26:53;101562.00;;;27.70
20736;BMP180;10528;52.124;5.196;2022-08-26T05:29:22;101569.00;;;27.60
20736;BMP180;10528;52.124;5.196;2022-08-26T05:31:51;101576.00;;;27.60
20736;BMP180;10528;52.124;5.196;2022-08-26T05:34:21;101573.00;;;27.60
20736;BMP180;10528;52.124;5.196;2022-08-26T05:36:51;101566.00;;;27.60
20736;BMP180;10528;52.124;5.196;2022-08-26T05:39:20;101572.00;;;27.60
20736;BMP180;10528;52.124;5.196;2022-08-26T05:41:49;101576.00;;;27.60
20736;BMP180;10528;52.124;5.196;2022-08-26T05:44:17;101575.00;;;27.60
20736;BMP180;10528;52.124;5.196;2022-08-26T05:46:47;101576.00;;;27.60
20736;BMP180;10528;52.124;5.196;2022-08-26T05:49:17;101589.00;;;27.60
20736;BMP180;10528;52.124;5.196;2022-08-26T05:51:45;101588.00;;;27.50
20736;BMP180;10528;52.124;5.196;2022-08-26T05:54:14;101585.00;;;27.60
20736;BMP180;10528;52.124;5.196;2022-08-26T05:56:49;101583.00;;;27.60
20736;BMP180;10528;52.124;5.196;2022-08-26T05:59:17;101582.00;;;27.60
20736;BMP180;10528;52.124;5.196;2022-08-26T06:01:51;101585.00;;;27.60
20736;BMP180;10528;52.124;5.196;2022-08-26T06:04:18;101589.00;;;27.60
20736;BMP180;10528;52.124;5.196;2022-08-26T06:06:46;101585.00;;;27.60
20736;BMP180;10528;52.124;5.196;2022-08-26T06:09:13;101587.00;;;27.60
20736;BMP180;10528;52.124;5.196;2022-08-26T06:11:43;101589.00;;;27.60
20736;BMP180;10528;52.124;5.196;2022-08-26T06:14:10;101602.00;;;27.60
20736;BMP180;10528;52.124;5.196;2022-08-26T06:16:40;101597.00;;;27.60
20736;BMP180;10528;52.124;5.196;2022-08-26T06:19:12;101585.00;;;27.60
20736;BMP180;10528;52.124;5.196;2022-08-26T06:21:44;101592.00;;;27.60
20736;BMP180;10528;52.124;5.196;2022-08-26T06:24:13;101595.00;;;27.60
20736;BMP180;10528;52.124;5.196;2022-08-26T06:27:05;101603.00;;;27.60
20736;BMP180;10528;52.124;5.196;2022-08-26T06:29:37;101599.00;;;27.60
20736;BMP180;10528;52.124;5.196;2022-08-26T06:32:04;101605.00;;;27.60
20736;BMP180;10528;52.124;5.196;2022-08-26T06:34:31;101612.00;;;27.60
20736;BMP180;10528;52.124;5.196;2022-08-26T06:36:59;101612.00;;;27.70
20736;BMP180;10528;52.124;5.196;2022-08-26T06:39:30;101603.00;;;27.70
20736;BMP180;10528;52.124;5.196;2022-08-26T06:41:59;101604.00;;;27.70
20736;BMP180;10528;52.124;5.196;2022-08-26T06:44:26;101607.00;;;27.70
20736;BMP180;10528;52.124;5.196;2022-08-26T06:46:53;101614.00;;;27.70
20736;BMP180;10528;52.124;5.196;2022-08-26T06:49:21;101615.00;;;27.70
20736;BMP180;10528;52.124;5.196;2022-08-26T06:51:55;101619.00;;;27.70
20736;BMP180;10528;52.124;5.196;2022-08-26T06:54:26;101625.00;;;27.70
20736;BMP180;10528;52.124;5.196;2022-08-26T06:56:54;101628.00;;;27.70
20736;BMP180;10528;52.124;5.196;2022-08-26T06:59:22;101629.00;;;27.70
20736;BMP180;10528;52.124;5.196;2022-08-26T07:01:49;101629.00;;;27.80
20736;BMP180;10528;52.124;5.196;2022-08-26T07:04:17;101635.00;;;27.80
20736;BMP180;10528;52.124;5.196;2022-08-26T07:06:48;101639.00;;;27.80
20736;BMP180;10528;52.124;5.196;2022-08-26T07:09:21;101635.00;;;27.70
20736;BMP180;10528;52.124;5.196;2022-08-26T07:11:51;101636.00;;;27.70
20736;BMP180;10528;52.124;5.196;2022-08-26T07:14:18;101636.00;;;27.70
20736;BMP180;10528;52.124;5.196;2022-08-26T07:16:48;101639.00;;;27.70
20736;BMP180;10528;52.124;5.196;2022-08-26T07:19:18;101649.00;;;27.70
20736;BMP180;10528;52.124;5.196;2022-08-26T07:21:59;101637.00;;;27.70
20736;BMP180;10528;52.124;5.196;2022-08-26T07:24:28;101641.00;;;27.70
20736;BMP180;10528;52.124;5.196;2022-08-26T07:27:00;101651.00;;;27.70
20736;BMP180;10528;52.124;5.196;2022-08-26T07:29:29;101645.00;;;27.70
20736;BMP180;10528;52.124;5.196;2022-08-26T07:31:57;101647.00;;;27.70
20736;BMP180;10528;52.124;5.196;2022-08-26T07:34:24;101651.00;;;27.70
20736;BMP180;10528;52.124;5.196;2022-08-26T07:36:52;101650.00;;;27.60
20736;BMP180;10528;52.124;5.196;2022-08-26T07:39:21;101661.00;;;27.70
20736;BMP180;10528;52.124;5.196;2022-08-26T07:41:49;101663.00;;;27.60
20736;BMP180;10528;52.124;5.196;2022-08-26T07:44:16;101657.00;;;27.70
20736;BMP180;10528;52.124;5.196;2022-08-26T07:46:44;101657.00;;;27.60
20736;BMP180;10528;52.124;5.196;2022-08-26T07:49:23;101661.00;;;27.60
20736;BMP180;10528;52.124;5.196;2022-08-26T07:51:54;101663.00;;;27.60
20736;BMP180;10528;52.124;5.196;2022-08-26T07:54:23;101671.00;;;27.60
20736;BMP180;10528;52.124;5.196;2022-08-26T07:56:53;101674.00;;;27.60
20736;BMP180;10528;52.124;5.196;2022-08-26T07:59:22;101680.00;;;27.60
20736;BMP180;10528;52.124;5.196;2022-08-26T08:01:49;101680.00;;;27.60
20736;BMP180;10528;52.124;5.196;2022-08-26T08:04:18;101671.00;;;27.60
20736;BMP180;10528;52.124;5.196;2022-08-26T08:06:53;101673.00;;;27.60
20736;BMP180;10528;52.124;5.196;2022-08-26T08:09:21;101677.00;;;27.60
20736;BMP180;10528;52.124;5.196;2022-08-26T08:11:49;101684.00;;;27.70
20736;BMP180;10528;52.124;5.196;2022-08-26T08:14:17;101682.00;;;27.70
20736;BMP180;10528;52.124;5.196;2022-08-26T08:16:48;101681.00;;;27.70
20736;BMP180;10528;52.124;5.196;2022-08-26T08:19:20;101667.00;;;27.70
20736;BMP180;10528;52.124;5.196;2022-08-26T08:21:48;101668.00;;;27.70
20736;BMP180;10528;52.124;5.196;2022-08-26T08:24:15;101667.00;;;27.70
20736;BMP180;10528;52.124;5.196;2022-08-26T08:26:42;101668.00;;;27.70
20736;BMP180;10528;52.124;5.196;2022-08-26T08:29:08;101672.00;;;27.70
20736;BMP180;10528;52.124;5.196;2022-08-26T08:31:35;101681.00;;;27.70
20736;BMP180;10528;52.124;5.196;2022-08-26T08:34:25;101691.00;;;27.70
20736;BMP180;10528;52.124;5.196;2022-08-26T08:36:53;101691.00;;;27.60
20736;BMP180;10528;52.124;5.196;2022-08-26T08:39:20;101682.00;;;27.60
20736;BMP180;10528;52.124;5.196;2022-08-26T08:44:52;101689.00;;;27.60
20736;BMP180;10528;52.124;5.196;2022-08-26T08:47:36;101689.00;;;27.60
20736;BMP180;10528;52.124;5.196;2022-08-26T08:50:33;101679.00;;;27.60
20736;BMP180;10528;52.124;5.196;2022-08-26T08:53:12;101692.00;;;27.60
20736;BMP180;10528;52.124;5.196;2022-08-26T08:56:01;101691.00;;;27.60
20736;BMP180;10528;52.124;5.196;2022-08-26T08:58:49;101688.00;;;27.70
20736;BMP180;10528;52.124;5.196;2022-08-26T09:01:36;101685.00;;;27.70
20736;BMP180;10528;52.124;5.196;2022-08-26T09:07:25;101685.00;;;27.80
20736;BMP180;10528;52.124;5.196;2022-08-26T09:10:03;101690.00;;;27.80
20736;BMP180;10528;52.124;5.196;2022-08-26T09:12:32;101691.00;;;27.80
20736;BMP180;10528;52.124;5.196;2022-08-26T09:15:18;101679.00;;;27.80
20736;BMP180;10528;52.124;5.196;2022-08-26T09:17:57;101682.00;;;27.80
20736;BMP180;10528;52.124;5.196;2022-08-26T09:23:22;101682.00;;;27.80
20736;BMP180;10528;52.124;5.196;2022-08-26T09:26:01;101685.00;;;27.80
20736;BMP180;10528;52.124;5.196;2022-08-26T09:28:30;101692.00;;;27.90
20736;BMP180;10528;52.124;5.196;2022-08-26T09:31:23;101690.00;;;27.90
20736;BMP180;10528;52.124;5.196;2022-08-26T09:34:23;101694.00;;;28.00
20736;BMP180;10528;52.124;5.196;2022-08-26T09:36:56;101693.00;;;28.00
20736;BMP180;10528;52.124;5.196;2022-08-26T09:45:04;101697.00;;;28.10
20736;BMP180;10528;52.124;5.196;2022-08-26T09:53:21;101691.00;;;28.20
20736;BMP180;10528;52.124;5.196;2022-08-26T09:56:15;101694.00;;;28.20
20736;BMP180;10528;52.124;5.196;2022-08-26T09:58:45;101696.00;;;28.20
20736;BMP180;10528;52.124;5.196;2022-08-26T10:03:50;101699.00;;;28.10
20736;BMP180;10528;52.124;5.196;2022-08-26T10:08:57;101695.00;;;28.10
20736;BMP180;10528;52.124;5.196;2022-08-26T10:14:30;101693.00;;;28.10
20736;BMP180;10528;52.124;5.196;2022-08-26T10:17:13;101699.00;;;28.10
20736;BMP180;10528;52.124;5.196;2022-08-26T10:19:53;101702.00;;;28.10
20736;BMP180;10528;52.124;5.196;2022-08-26T10:23:00;101697.00;;;28.10
20736;BMP180;10528;52.124;5.196;2022-08-26T10:25:58;101704.00;;;28.10
20736;BMP180;10528;52.124;5.196;2022-08-26T10:28:42;101704.00;;;28.10
20736;BMP180;10528;52.124;5.196;2022-08-26T10:31:28;101702.00;;;28.00
20736;BMP180;10528;52.124;5.196;2022-08-26T10:34:08;101700.00;;;28.10
20736;BMP180;10528;52.124;5.196;2022-08-26T10:36:51;101686.00;;;28.10
20736;BMP180;10528;52.124;5.196;2022-08-26T10:43:06;101692.00;;;28.00
20736;BMP180;10528;52.124;5.196;2022-08-26T10:45:53;101690.00;;;28.10
20736;BMP180;10528;52.124;5.196;2022-08-26T10:48:48;101696.00;;;28.10
20736;BMP180;10528;52.124;5.196;2022-08-26T10:51:34;101699.00;;;28.10
20736;BMP180;10528;52.124;5.196;2022-08-26T10:57:12;101693.00;;;28.10
20736;BMP180;10528;52.124;5.196;2022-08-26T10:59:58;101698.00;;;28.10
20736;BMP180;10528;52.124;5.196;2022-08-26T11:02:44;101700.00;;;28.20
20736;BMP180;10528;52.124;5.196;2022-08-26T11:05:19;101699.00;;;28.20
20736;BMP180;10528;52.124;5.196;2022-08-26T11:07:50;101699.00;;;28.20
20736;BMP180;10528;52.124;5.196;2022-08-26T11:22:56;101713.00;;;28.40
20736;BMP180;10528;52.124;5.196;2022-08-26T11:28:47;101699.00;;;28.40
20736;BMP180;10528;52.124;5.196;2022-08-26T11:34:05;101707.00;;;28.30
20736;BMP180;10528;52.124;5.196;2022-08-26T11:39:54;101706.00;;;28.20
20736;BMP180;10528;52.124;5.196;2022-08-26T11:42:31;101700.00;;;28.30
20736;BMP180;10528;52.124;5.196;2022-08-26T11:45:24;101708.00;;;28.30
20736;BMP180;10528;52.124;5.196;2022-08-26T11:47:53;101700.00;;;28.30
20736;BMP180;10528;52.124;5.196;2022-08-26T11:50:25;101697.00;;;28.30
20736;BMP180;10528;52.124;5.196;2022-08-26T11:53:00;101708.00;;;28.30
20736;BMP180;10528;52.124;5.196;2022-08-26T11:55:35;101705.00;;;28.30
20736;BMP180;10528;52.124;5.196;2022-08-26T11:58:12;101698.00;;;28.30
20736;BMP180;10528;52.124;5.196;2022-08-26T12:03:48;101700.00;;;28.20
20736;BMP180;10528;52.124;5.196;2022-08-26T12:06:40;101698.00;;;28.30
20736;BMP180;10528;52.124;5.196;2022-08-26T12:09:26;101700.00;;;28.30
20736;BMP180;10528;52.124;5.196;2022-08-26T12:12:12;101691.00;;;28.30
20736;BMP180;10528;52.124;5.196;2022-08-26T12:14:40;101698.00;;;28.30
20736;BMP180;10528;52.124;5.196;2022-08-26T12:17:11;101701.00;;;28.30
20736;BMP180;10528;52.124;5.196;2022-08-26T12:19:38;101698.00;;;28.30
20736;BMP180;10528;52.124;5.196;2022-08-26T12:22:19;101706.00;;;28.30
20736;BMP180;10528;52.124;5.196;2022-08-26T12:25:02;101706.00;;;28.30
20736;BMP180;10528;52.124;5.196;2022-08-26T12:27:37;101711.00;;;28.30
20736;BMP180;10528;52.124;5.196;2022-08-26T12:32:47;101702.00;;;28.20
20736;BMP180;10528;52.124;5.196;2022-08-26T12:35:24;101712.00;;;28.20
20736;BMP180;10528;52.124;5.196;2022-08-26T12:37:55;101716.00;;;28.30
20736;BMP180;10528;52.124;5.196;2022-08-26T12:40:41;101709.00;;;28.20
20736;BMP180;10528;52.124;5.196;2022-08-26T12:43:12;101713.00;;;28.30
20736;BMP180;10528;52.124;5.196;2022-08-26T12:45:55;101700.00;;;28.30
20736;BMP180;10528;52.124;5.196;2022-08-26T12:48:35;101719.00;;;28.40
20736;BMP180;10528;52.124;5.196;2022-08-26T12:51:10;101726.00;;;28.40
20736;BMP180;10528;52.124;5.196;2022-08-26T12:53:42;101713.00;;;28.40
20736;BMP180;10528;52.124;5.196;2022-08-26T12:56:28;101718.00;;;28.40
20736;BMP180;10528;52.124;5.196;2022-08-26T13:01:46;101718.00;;;28.40
20736;BMP180;10528;52.124;5.196;2022-08-26T13:04:39;101728.00;;;28.40
20736;BMP180;10528;52.124;5.196;2022-08-26T13:07:25;101712.00;;;28.40
20736;BMP180;10528;52.124;5.196;2022-08-26T13:09:56;101717.00;;;28.50
20736;BMP180;10528;52.124;5.196;2022-08-26T13:12:32;101721.00;;;28.50
20736;BMP180;10528;52.124;5.196;2022-08-26T13:15:01;101719.00;;;28.50
20736;BMP180;10528;52.124;5.196;2022-08-26T13:17:29;101709.00;;;28.50
20736;BMP180;10528;52.124;5.196;2022-08-26T13:19:57;101711.00;;;28.50
20736;BMP180;10528;52.124;5.196;2022-08-26T13:22:31;101712.00;;;28.50
20736;BMP180;10528;52.124;5.196;2022-08-26T13:24:58;101704.00;;;28.50
20736;BMP180;10528;52.124;5.196;2022-08-26T13:27:26;101713.00;;;28.50
20736;BMP180;10528;52.124;5.196;2022-08-26T13:29:54;101708.00;;;28.50
20736;BMP180;10528;52.124;5.196;2022-08-26T13:32:23;101704.00;;;28.50
20736;BMP180;10528;52.124;5.196;2022-08-26T13:34:55;101708.00;;;28.50
20736;BMP180;10528;52.124;5.196;2022-08-26T13:37:23;101698.00;;;28.50
20736;BMP180;10528;52.124;5.196;2022-08-26T13:40:03;101702.00;;;28.50
20736;BMP180;10528;52.124;5.196;2022-08-26T13:42:32;101696.00;;;28.50
20736;BMP180;10528;52.124;5.196;2022-08-26T13:45:00;101690.00;;;28.50
20736;BMP180;10528;52.124;5.196;2022-08-26T13:47:28;101699.00;;;28.50
20736;BMP180;10528;52.124;5.196;2022-08-26T13:49:54;101700.00;;;28.50
20736;BMP180;10528;52.124;5.196;2022-08-26T13:52:22;101704.00;;;28.50
20736;BMP180;10528;52.124;5.196;2022-08-26T13:54:56;101709.00;;;28.50
20736;BMP180;10528;52.124;5.196;2022-08-26T13:57:23;101705.00;;;28.50
20736;BMP180;10528;52.124;5.196;2022-08-26T13:59:53;101698.00;;;28.50
20736;BMP180;10528;52.124;5.196;2022-08-26T14:02:22;101703.00;;;28.50
20736;BMP180;10528;52.124;5.196;2022-08-26T14:04:49;101704.00;;;28.50
20736;BMP180;10528;52.124;5.196;2022-08-26T14:07:15;101701.00;;;28.50
20736;BMP180;10528;52.124;5.196;2022-08-26T14:09:42;101704.00;;;28.50
20736;BMP180;10528;52.124;5.196;2022-08-26T14:12:09;101708.00;;;28.50
20736;BMP180;10528;52.124;5.196;2022-08-26T14:14:36;101710.00;;;28.50
20736;BMP180;10528;52.124;5.196;2022-08-26T14:17:03;101699.00;;;28.50
20736;BMP180;10528;52.124;5.196;2022-08-26T14:19:30;101711.00;;;28.50
20736;BMP180;10528;52.124;5.196;2022-08-26T14:21:58;101699.00;;;28.50
20736;BMP180;10528;52.124;5.196;2022-08-26T14:24:26;101703.00;;;28.50
20736;BMP180;10528;52.124;5.196;2022-08-26T14:26:54;101705.00;;;28.40
20736;BMP180;10528;52.124;5.196;2022-08-26T14:29:21;101701.00;;;28.50
20736;BMP180;10528;52.124;5.196;2022-08-26T14:31:48;101700.00;;;28.50
20736;BMP180;10528;52.124;5.196;2022-08-26T14:34:15;101699.00;;;28.50
20736;BMP180;10528;52.124;5.196;2022-08-26T14:36:42;101692.00;;;28.50
20736;BMP180;10528;52.124;5.196;2022-08-26T14:39:12;101691.00;;;28.40
20736;BMP180;10528;52.124;5.196;2022-08-26T14:41:55;101696.00;;;28.40
20736;BMP180;10528;52.124;5.196;2022-08-26T14:44:31;101690.00;;;28.40
20736;BMP180;10528;52.124;5.196;2022-08-26T14:47:03;101686.00;;;28.30
20736;BMP180;10528;52.124;5.196;2022-08-26T14:49:32;101695.00;;;28.40
20736;BMP180;10528;52.124;5.196;2022-08-26T14:51:59;101685.00;;;28.40
20736;BMP180;10528;52.124;5.196;2022-08-26T14:54:26;101693.00;;;28.30
20736;BMP180;10528;52.124;5.196;2022-08-26T14:56:59;101690.00;;;28.30
20736;BMP180;10528;52.124;5.196;2022-08-26T14:59:31;101683.00;;;28.30
20736;BMP180;10528;52.124;5.196;2022-08-26T15:01:59;101686.00;;;28.30
20736;BMP180;10528;52.124;5.196;2022-08-26T15:04:27;101682.00;;;28.30
20736;BMP180;10528;52.124;5.196;2022-08-26T15:06:56;101682.00;;;28.30
20736;BMP180;10528;52.124;5.196;2022-08-26T15:09:27;101680.00;;;28.40
20736;BMP180;10528;52.124;5.196;2022-08-26T15:11:54;101685.00;;;28.30
20736;BMP180;10528;52.124;5.196;2022-08-26T15:14:23;101682.00;;;28.30
20736;BMP180;10528;52.124;5.196;2022-08-26T15:16:55;101680.00;;;28.30
20736;BMP180;10528;52.124;5.196;2022-08-26T15:19:24;101689.00;;;28.40
20736;BMP180;10528;52.124;5.196;2022-08-26T15:21:52;101684.00;;;28.40
20736;BMP180;10528;52.124;5.196;2022-08-26T15:24:24;101686.00;;;28.40
20736;BMP180;10528;52.124;5.196;2022-08-26T15:26:52;101677.00;;;28.40
20736;BMP180;10528;52.124;5.196;2022-08-26T15:29:20;101679.00;;;28.40
20736;BMP180;10528;52.124;5.196;2022-08-26T15:31:49;101685.00;;;28.40
20736;BMP180;10528;52.124;5.196;2022-08-26T15:34:16;101681.00;;;28.40